Windermere, United Kingdom
Current Conditions -  °F | °C
As of 7:50 AM on Friday 19 Dec 2014 (Local Time) from EGNH Reporting Station
Rain Showers Rain Showers  
Wind Chill: 38°   Ceiling: Unl
Heat Index: 46°   Visibility: 6mi
Dew Point: 37°   Wind: 28mph
Humidity: 71%   Direction: 260°W
Pressure: 29.77"   Gusts: NA
Location:  54.38°N, 2.91°W
Report Text: EGNH 190750Z 26024KT 9999 VCSH FEW018 SCT032 08/03 Q1008
Loading
Personal Weather Stations






























Interactive Weather Map New forecast layout! Learn more

10-Day Weather Forecast

Advertisements
Track Severe Weather on mobile